sensor_id;sensor_type;location;lat;lon;timestamp;P1;durP1;ratioP1;P2;durP2;ratioP2
66830;SDS011;53739;44.224;22.528;2023-06-10T00:00:08;21.48;;;10.75;;
66830;SDS011;53739;44.224;22.528;2023-06-10T00:02:37;17.27;;;11.75;;
66830;SDS011;53739;44.224;22.528;2023-06-10T00:05:04;13.85;;;10.30;;
66830;SDS011;53739;44.224;22.528;2023-06-10T00:07:30;12.13;;;10.23;;
66830;SDS011;53739;44.224;22.528;2023-06-10T00:09:56;19.88;;;11.18;;
66830;SDS011;53739;44.224;22.528;2023-06-10T00:12:23;11.00;;;9.40;;
66830;SDS011;53739;44.224;22.528;2023-06-10T00:14:49;11.98;;;9.50;;
66830;SDS011;53739;44.224;22.528;2023-06-10T00:17:16;11.30;;;9.80;;
66830;SDS011;53739;44.224;22.528;2023-06-10T00:19:42;14.15;;;8.95;;
66830;SDS011;53739;44.224;22.528;2023-06-10T00:22:12;16.42;;;9.60;;
66830;SDS011;53739;44.224;22.528;2023-06-10T00:24:38;17.85;;;9.57;;
66830;SDS011;53739;44.224;22.528;2023-06-10T00:27:04;11.32;;;8.77;;
66830;SDS011;53739;44.224;22.528;2023-06-10T00:29:32;21.20;;;8.23;;
66830;SDS011;53739;44.224;22.528;2023-06-10T00:31:58;16.35;;;10.23;;
66830;SDS011;53739;44.224;22.528;2023-06-10T00:34:24;34.67;;;16.05;;
66830;SDS011;53739;44.224;22.528;2023-06-10T00:36:50;34.00;;;18.63;;
66830;SDS011;53739;44.224;22.528;2023-06-10T00:39:16;32.88;;;17.02;;
66830;SDS011;53739;44.224;22.528;2023-06-10T00:41:42;28.45;;;15.52;;
66830;SDS011;53739;44.224;22.528;2023-06-10T00:44:08;30.17;;;15.45;;
66830;SDS011;53739;44.224;22.528;2023-06-10T00:46:35;23.88;;;13.77;;
66830;SDS011;53739;44.224;22.528;2023-06-10T00:49:02;23.27;;;13.55;;
66830;SDS011;53739;44.224;22.528;2023-06-10T00:51:28;19.70;;;13.30;;
66830;SDS011;53739;44.224;22.528;2023-06-10T00:53:54;20.70;;;12.15;;
66830;SDS011;53739;44.224;22.528;2023-06-10T00:56:21;19.20;;;11.88;;
66830;SDS011;53739;44.224;22.528;2023-06-10T00:58:47;19.50;;;11.38;;
66830;SDS011;53739;44.224;22.528;2023-06-10T01:01:13;19.60;;;11.35;;
66830;SDS011;53739;44.224;22.528;2023-06-10T01:03:40;15.13;;;9.30;;
66830;SDS011;53739;44.224;22.528;2023-06-10T01:06:08;21.13;;;9.82;;
66830;SDS011;53739;44.224;22.528;2023-06-10T01:08:41;11.63;;;8.88;;
66830;SDS011;53739;44.224;22.528;2023-06-10T01:11:13;15.18;;;9.00;;
66830;SDS011;53739;44.224;22.528;2023-06-10T01:13:41;20.10;;;11.98;;
66830;SDS011;53739;44.224;22.528;2023-06-10T01:16:08;25.63;;;12.82;;
66830;SDS011;53739;44.224;22.528;2023-06-10T01:18:34;24.65;;;11.05;;
66830;SDS011;53739;44.224;22.528;2023-06-10T01:21:00;18.20;;;10.80;;
66830;SDS011;53739;44.224;22.528;2023-06-10T01:23:27;17.58;;;10.10;;
66830;SDS011;53739;44.224;22.528;2023-06-10T01:25:55;14.52;;;10.07;;
66830;SDS011;53739;44.224;22.528;2023-06-10T01:28:31;21.27;;;10.60;;
66830;SDS011;53739;44.224;22.528;2023-06-10T01:31:07;17.40;;;11.18;;
66830;SDS011;53739;44.224;22.528;2023-06-10T01:33:37;19.35;;;11.57;;
66830;SDS011;53739;44.224;22.528;2023-06-10T01:36:04;19.70;;;11.38;;
66830;SDS011;53739;44.224;22.528;2023-06-10T01:38:32;19.92;;;11.27;;
66830;SDS011;53739;44.224;22.528;2023-06-10T01:40:59;14.52;;;9.75;;
66830;SDS011;53739;44.224;22.528;2023-06-10T01:43:26;14.45;;;9.27;;
66830;SDS011;53739;44.224;22.528;2023-06-10T01:45:52;12.82;;;10.23;;
66830;SDS011;53739;44.224;22.528;2023-06-10T01:48:18;11.68;;;9.60;;
66830;SDS011;53739;44.224;22.528;2023-06-10T01:50:44;18.80;;;9.48;;
66830;SDS011;53739;44.224;22.528;2023-06-10T01:53:11;14.95;;;11.48;;
66830;SDS011;53739;44.224;22.528;2023-06-10T01:55:37;41.90;;;20.35;;
66830;SDS011;53739;44.224;22.528;2023-06-10T01:58:03;39.58;;;20.50;;
66830;SDS011;53739;44.224;22.528;2023-06-10T02:00:29;29.42;;;14.57;;
66830;SDS011;53739;44.224;22.528;2023-06-10T02:02:55;18.38;;;11.57;;
66830;SDS011;53739;44.224;22.528;2023-06-10T02:05:21;18.35;;;11.50;;
66830;SDS011;53739;44.224;22.528;2023-06-10T02:07:48;28.27;;;10.93;;
66830;SDS011;53739;44.224;22.528;2023-06-10T02:10:14;24.92;;;10.82;;
66830;SDS011;53739;44.224;22.528;2023-06-10T02:12:40;25.50;;;11.60;;
66830;SDS011;53739;44.224;22.528;2023-06-10T02:15:06;15.07;;;10.23;;
66830;SDS011;53739;44.224;22.528;2023-06-10T02:17:32;12.13;;;10.35;;
66830;SDS011;53739;44.224;22.528;2023-06-10T02:19:58;20.02;;;10.50;;
66830;SDS011;53739;44.224;22.528;2023-06-10T02:22:31;12.43;;;9.68;;
66830;SDS011;53739;44.224;22.528;2023-06-10T02:24:57;22.95;;;10.40;;
66830;SDS011;53739;44.224;22.528;2023-06-10T02:27:23;16.45;;;11.18;;
66830;SDS011;53739;44.224;22.528;2023-06-10T02:29:49;17.65;;;11.25;;
66830;SDS011;53739;44.224;22.528;2023-06-10T02:32:15;22.60;;;11.95;;
66830;SDS011;53739;44.224;22.528;2023-06-10T02:34:41;14.95;;;11.27;;
66830;SDS011;53739;44.224;22.528;2023-06-10T02:37:07;14.65;;;11.77;;
66830;SDS011;53739;44.224;22.528;2023-06-10T02:39:34;13.98;;;10.38;;
66830;SDS011;53739;44.224;22.528;2023-06-10T02:42:00;16.90;;;11.68;;
66830;SDS011;53739;44.224;22.528;2023-06-10T02:44:25;14.30;;;10.95;;
66830;SDS011;53739;44.224;22.528;2023-06-10T02:46:51;15.00;;;9.73;;
66830;SDS011;53739;44.224;22.528;2023-06-10T02:49:17;16.60;;;10.50;;
66830;SDS011;53739;44.224;22.528;2023-06-10T02:51:43;14.68;;;9.77;;
66830;SDS011;53739;44.224;22.528;2023-06-10T02:54:09;16.83;;;10.50;;
66830;SDS011;53739;44.224;22.528;2023-06-10T02:56:34;22.15;;;11.50;;
66830;SDS011;53739;44.224;22.528;2023-06-10T02:59:01;14.93;;;9.85;;
66830;SDS011;53739;44.224;22.528;2023-06-10T03:01:27;18.63;;;8.52;;
66830;SDS011;53739;44.224;22.528;2023-06-10T03:03:53;13.70;;;8.98;;
66830;SDS011;53739;44.224;22.528;2023-06-10T03:06:21;14.15;;;9.05;;
66830;SDS011;53739;44.224;22.528;2023-06-10T03:08:49;18.35;;;10.07;;
66830;SDS011;53739;44.224;22.528;2023-06-10T03:11:15;15.23;;;10.15;;
66830;SDS011;53739;44.224;22.528;2023-06-10T03:13:41;15.82;;;10.13;;
66830;SDS011;53739;44.224;22.528;2023-06-10T03:16:07;26.35;;;11.35;;
66830;SDS011;53739;44.224;22.528;2023-06-10T03:18:32;21.58;;;10.88;;
66830;SDS011;53739;44.224;22.528;2023-06-10T03:20:58;14.35;;;10.90;;
66830;SDS011;53739;44.224;22.528;2023-06-10T03:23:25;21.35;;;13.13;;
66830;SDS011;53739;44.224;22.528;2023-06-10T03:25:52;20.80;;;14.60;;
66830;SDS011;53739;44.224;22.528;2023-06-10T03:28:19;19.45;;;13.90;;
66830;SDS011;53739;44.224;22.528;2023-06-10T03:30:46;23.10;;;12.40;;
66830;SDS011;53739;44.224;22.528;2023-06-10T03:33:13;15.65;;;11.85;;
66830;SDS011;53739;44.224;22.528;2023-06-10T03:35:39;23.10;;;12.93;;
66830;SDS011;53739;44.224;22.528;2023-06-10T03:38:05;18.17;;;11.93;;
66830;SDS011;53739;44.224;22.528;2023-06-10T03:40:31;14.48;;;12.70;;
66830;SDS011;53739;44.224;22.528;2023-06-10T03:42:57;16.27;;;11.50;;
66830;SDS011;53739;44.224;22.528;2023-06-10T03:45:23;15.75;;;10.95;;
66830;SDS011;53739;44.224;22.528;2023-06-10T03:47:49;21.88;;;13.10;;
66830;SDS011;53739;44.224;22.528;2023-06-10T03:50:15;18.08;;;11.13;;
66830;SDS011;53739;44.224;22.528;2023-06-10T03:52:41;17.55;;;10.65;;
66830;SDS011;53739;44.224;22.528;2023-06-10T03:55:07;19.38;;;12.20;;
66830;SDS011;53739;44.224;22.528;2023-06-10T03:57:33;19.50;;;12.60;;
66830;SDS011;53739;44.224;22.528;2023-06-10T03:59:59;20.42;;;13.77;;
66830;SDS011;53739;44.224;22.528;2023-06-10T04:02:24;17.65;;;13.25;;
66830;SDS011;53739;44.224;22.528;2023-06-10T04:04:50;22.58;;;12.48;;
66830;SDS011;53739;44.224;22.528;2023-06-10T04:07:16;18.63;;;12.98;;
66830;SDS011;53739;44.224;22.528;2023-06-10T04:09:45;25.23;;;14.77;;
66830;SDS011;53739;44.224;22.528;2023-06-10T04:12:11;19.15;;;12.55;;
66830;SDS011;53739;44.224;22.528;2023-06-10T04:14:37;21.02;;;13.73;;
66830;SDS011;53739;44.224;22.528;2023-06-10T04:17:04;19.48;;;12.05;;
66830;SDS011;53739;44.224;22.528;2023-06-10T04:19:33;15.07;;;10.80;;
66830;SDS011;53739;44.224;22.528;2023-06-10T04:22:00;15.55;;;9.85;;
66830;SDS011;53739;44.224;22.528;2023-06-10T04:24:27;11.75;;;9.55;;
66830;SDS011;53739;44.224;22.528;2023-06-10T04:26:53;12.75;;;9.20;;
66830;SDS011;53739;44.224;22.528;2023-06-10T04:29:19;13.00;;;9.00;;
66830;SDS011;53739;44.224;22.528;2023-06-10T04:31:45;10.07;;;8.20;;
66830;SDS011;53739;44.224;22.528;2023-06-10T04:34:11;11.32;;;8.25;;
66830;SDS011;53739;44.224;22.528;2023-06-10T04:36:38;12.93;;;7.90;;
66830;SDS011;53739;44.224;22.528;2023-06-10T04:39:04;16.30;;;7.97;;
66830;SDS011;53739;44.224;22.528;2023-06-10T04:41:30;7.93;;;6.90;;
66830;SDS011;53739;44.224;22.528;2023-06-10T04:43:57;10.00;;;7.97;;
66830;SDS011;53739;44.224;22.528;2023-06-10T04:46:23;10.65;;;7.32;;
66830;SDS011;53739;44.224;22.528;2023-06-10T04:48:49;9.15;;;6.72;;
66830;SDS011;53739;44.224;22.528;2023-06-10T04:51:15;16.63;;;7.07;;
66830;SDS011;53739;44.224;22.528;2023-06-10T04:53:41;10.02;;;7.00;;
66830;SDS011;53739;44.224;22.528;2023-06-10T04:56:07;9.25;;;6.55;;
66830;SDS011;53739;44.224;22.528;2023-06-10T04:58:33;9.05;;;7.35;;
66830;SDS011;53739;44.224;22.528;2023-06-10T05:00:59;10.05;;;6.13;;
66830;SDS011;53739;44.224;22.528;2023-06-10T05:03:25;10.95;;;6.07;;
66830;SDS011;53739;44.224;22.528;2023-06-10T05:05:51;10.95;;;6.57;;
66830;SDS011;53739;44.224;22.528;2023-06-10T05:08:17;10.52;;;6.20;;
66830;SDS011;53739;44.224;22.528;2023-06-10T05:10:43;9.95;;;6.18;;
66830;SDS011;53739;44.224;22.528;2023-06-10T05:13:09;10.48;;;6.43;;
66830;SDS011;53739;44.224;22.528;2023-06-10T05:15:35;11.02;;;6.53;;
66830;SDS011;53739;44.224;22.528;2023-06-10T05:18:00;7.75;;;5.40;;
66830;SDS011;53739;44.224;22.528;2023-06-10T05:20:27;10.85;;;6.60;;
66830;SDS011;53739;44.224;22.528;2023-06-10T05:22:54;11.50;;;7.13;;
66830;SDS011;53739;44.224;22.528;2023-06-10T05:25:21;11.20;;;6.95;;
66830;SDS011;53739;44.224;22.528;2023-06-10T05:27:47;11.60;;;6.80;;
66830;SDS011;53739;44.224;22.528;2023-06-10T05:30:12;8.90;;;6.40;;
66830;SDS011;53739;44.224;22.528;2023-06-10T05:32:38;11.90;;;7.22;;
66830;SDS011;53739;44.224;22.528;2023-06-10T05:35:04;15.93;;;6.10;;
66830;SDS011;53739;44.224;22.528;2023-06-10T05:37:33;11.20;;;6.00;;
66830;SDS011;53739;44.224;22.528;2023-06-10T05:40:00;9.95;;;6.47;;
66830;SDS011;53739;44.224;22.528;2023-06-10T05:42:26;9.05;;;6.80;;
66830;SDS011;53739;44.224;22.528;2023-06-10T05:44:51;10.65;;;6.93;;
66830;SDS011;53739;44.224;22.528;2023-06-10T05:47:17;11.00;;;5.75;;
66830;SDS011;53739;44.224;22.528;2023-06-10T05:49:43;10.25;;;5.78;;
66830;SDS011;53739;44.224;22.528;2023-06-10T05:52:10;12.05;;;6.03;;
66830;SDS011;53739;44.224;22.528;2023-06-10T05:54:36;6.00;;;5.20;;
66830;SDS011;53739;44.224;22.528;2023-06-10T05:57:02;7.38;;;5.15;;
66830;SDS011;53739;44.224;22.528;2023-06-10T05:59:28;9.80;;;5.63;;
66830;SDS011;53739;44.224;22.528;2023-06-10T06:01:54;7.60;;;5.43;;
66830;SDS011;53739;44.224;22.528;2023-06-10T06:04:20;7.60;;;5.80;;
66830;SDS011;53739;44.224;22.528;2023-06-10T06:06:46;11.15;;;5.13;;
66830;SDS011;53739;44.224;22.528;2023-06-10T06:09:12;8.60;;;5.00;;
66830;SDS011;53739;44.224;22.528;2023-06-10T06:11:38;9.45;;;6.18;;
66830;SDS011;53739;44.224;22.528;2023-06-10T06:14:04;9.30;;;5.63;;
66830;SDS011;53739;44.224;22.528;2023-06-10T06:16:30;7.30;;;5.30;;
66830;SDS011;53739;44.224;22.528;2023-06-10T06:18:56;6.57;;;5.15;;
66830;SDS011;53739;44.224;22.528;2023-06-10T06:21:22;7.47;;;5.30;;
66830;SDS011;53739;44.224;22.528;2023-06-10T06:23:49;11.48;;;5.30;;
66830;SDS011;53739;44.224;22.528;2023-06-10T06:26:15;15.77;;;4.90;;
66830;SDS011;53739;44.224;22.528;2023-06-10T06:28:41;7.95;;;4.88;;
66830;SDS011;53739;44.224;22.528;2023-06-10T06:31:07;11.88;;;5.43;;
66830;SDS011;53739;44.224;22.528;2023-06-10T06:33:33;8.85;;;5.47;;
66830;SDS011;53739;44.224;22.528;2023-06-10T06:35:59;6.18;;;4.95;;
66830;SDS011;53739;44.224;22.528;2023-06-10T06:38:26;9.20;;;4.88;;
66830;SDS011;53739;44.224;22.528;2023-06-10T06:40:52;8.35;;;5.20;;
66830;SDS011;53739;44.224;22.528;2023-06-10T06:43:18;10.60;;;5.10;;
66830;SDS011;53739;44.224;22.528;2023-06-10T06:45:44;6.90;;;4.43;;
66830;SDS011;53739;44.224;22.528;2023-06-10T06:48:11;9.70;;;4.35;;
66830;SDS011;53739;44.224;22.528;2023-06-10T06:50:37;6.05;;;4.65;;
66830;SDS011;53739;44.224;22.528;2023-06-10T06:53:11;8.35;;;4.55;;
66830;SDS011;53739;44.224;22.528;2023-06-10T06:55:38;6.10;;;4.32;;
66830;SDS011;53739;44.224;22.528;2023-06-10T06:58:04;10.90;;;4.80;;
66830;SDS011;53739;44.224;22.528;2023-06-10T07:00:30;7.63;;;4.78;;
66830;SDS011;53739;44.224;22.528;2023-06-10T07:02:56;9.60;;;4.55;;
66830;SDS011;53739;44.224;22.528;2023-06-10T07:05:23;7.70;;;4.70;;
66830;SDS011;53739;44.224;22.528;2023-06-10T07:07:52;6.82;;;4.30;;
66830;SDS011;53739;44.224;22.528;2023-06-10T07:10:23;8.00;;;4.10;;
66830;SDS011;53739;44.224;22.528;2023-06-10T07:12:49;7.47;;;4.65;;
66830;SDS011;53739;44.224;22.528;2023-06-10T07:15:16;11.10;;;5.18;;
66830;SDS011;53739;44.224;22.528;2023-06-10T07:17:42;7.72;;;4.78;;
66830;SDS011;53739;44.224;22.528;2023-06-10T07:20:08;7.65;;;4.40;;
66830;SDS011;53739;44.224;22.528;2023-06-10T07:22:34;8.38;;;5.10;;
66830;SDS011;53739;44.224;22.528;2023-06-10T07:25:01;10.10;;;5.07;;
66830;SDS011;53739;44.224;22.528;2023-06-10T07:27:30;6.13;;;4.60;;
66830;SDS011;53739;44.224;22.528;2023-06-10T07:29:56;8.80;;;5.47;;
66830;SDS011;53739;44.224;22.528;2023-06-10T07:32:22;7.38;;;5.45;;
66830;SDS011;53739;44.224;22.528;2023-06-10T07:34:49;7.50;;;4.57;;
66830;SDS011;53739;44.224;22.528;2023-06-10T07:37:15;9.18;;;4.93;;
66830;SDS011;53739;44.224;22.528;2023-06-10T07:39:41;8.93;;;5.07;;
66830;SDS011;53739;44.224;22.528;2023-06-10T07:42:08;12.77;;;6.25;;
66830;SDS011;53739;44.224;22.528;2023-06-10T07:44:34;9.80;;;4.82;;
66830;SDS011;53739;44.224;22.528;2023-06-10T07:47:02;10.32;;;5.55;;
66830;SDS011;53739;44.224;22.528;2023-06-10T07:49:31;8.65;;;5.10;;
66830;SDS011;53739;44.224;22.528;2023-06-10T07:52:00;7.90;;;5.18;;
66830;SDS011;53739;44.224;22.528;2023-06-10T07:54:36;8.63;;;5.05;;
66830;SDS011;53739;44.224;22.528;2023-06-10T07:57:01;7.32;;;5.38;;
66830;SDS011;53739;44.224;22.528;2023-06-10T07:59:31;9.25;;;4.78;;
66830;SDS011;53739;44.224;22.528;2023-06-10T08:01:57;7.78;;;5.53;;
66830;SDS011;53739;44.224;22.528;2023-06-10T08:04:23;6.82;;;4.65;;
66830;SDS011;53739;44.224;22.528;2023-06-10T08:06:49;6.22;;;5.18;;
66830;SDS011;53739;44.224;22.528;2023-06-10T08:09:15;11.00;;;5.10;;
66830;SDS011;53739;44.224;22.528;2023-06-10T08:11:41;10.38;;;5.53;;
66830;SDS011;53739;44.224;22.528;2023-06-10T08:14:07;8.57;;;5.70;;
66830;SDS011;53739;44.224;22.528;2023-06-10T08:16:33;14.15;;;5.38;;
66830;SDS011;53739;44.224;22.528;2023-06-10T08:18:59;8.40;;;5.32;;
66830;SDS011;53739;44.224;22.528;2023-06-10T08:21:24;11.20;;;6.35;;
66830;SDS011;53739;44.224;22.528;2023-06-10T08:23:54;6.82;;;5.32;;
66830;SDS011;53739;44.224;22.528;2023-06-10T08:26:20;11.13;;;5.65;;
66830;SDS011;53739;44.224;22.528;2023-06-10T08:28:47;13.75;;;6.18;;
66830;SDS011;53739;44.224;22.528;2023-06-10T08:31:13;9.15;;;5.80;;
66830;SDS011;53739;44.224;22.528;2023-06-10T08:33:41;11.00;;;6.03;;
66830;SDS011;53739;44.224;22.528;2023-06-10T08:36:07;8.70;;;5.45;;
66830;SDS011;53739;44.224;22.528;2023-06-10T08:38:33;9.95;;;5.82;;
66830;SDS011;53739;44.224;22.528;2023-06-10T08:40:59;7.05;;;5.85;;
66830;SDS011;53739;44.224;22.528;2023-06-10T08:43:30;9.27;;;6.20;;
66830;SDS011;53739;44.224;22.528;2023-06-10T08:45:59;8.48;;;6.30;;
66830;SDS011;53739;44.224;22.528;2023-06-10T08:48:35;7.20;;;5.70;;
66830;SDS011;53739;44.224;22.528;2023-06-10T08:51:04;7.05;;;5.07;;
66830;SDS011;53739;44.224;22.528;2023-06-10T08:53:31;9.32;;;5.70;;
66830;SDS011;53739;44.224;22.528;2023-06-10T08:56:00;7.13;;;5.45;;
66830;SDS011;53739;44.224;22.528;2023-06-10T08:58:28;10.95;;;5.25;;
66830;SDS011;53739;44.224;22.528;2023-06-10T09:00:55;5.85;;;5.25;;
66830;SDS011;53739;44.224;22.528;2023-06-10T09:03:21;9.05;;;5.53;;
66830;SDS011;53739;44.224;22.528;2023-06-10T09:05:49;6.70;;;5.15;;
66830;SDS011;53739;44.224;22.528;2023-06-10T09:08:15;13.63;;;5.70;;
66830;SDS011;53739;44.224;22.528;2023-06-10T09:10:42;8.85;;;5.80;;
66830;SDS011;53739;44.224;22.528;2023-06-10T09:13:08;16.40;;;5.88;;
66830;SDS011;53739;44.224;22.528;2023-06-10T09:15:34;6.97;;;5.35;;
66830;SDS011;53739;44.224;22.528;2023-06-10T09:18:05;9.95;;;5.13;;
66830;SDS011;53739;44.224;22.528;2023-06-10T09:20:31;9.48;;;5.47;;
66830;SDS011;53739;44.224;22.528;2023-06-10T09:22:58;7.72;;;4.95;;
66830;SDS011;53739;44.224;22.528;2023-06-10T09:25:34;6.13;;;4.72;;
66830;SDS011;53739;44.224;22.528;2023-06-10T09:28:01;9.90;;;5.38;;
66830;SDS011;53739;44.224;22.528;2023-06-10T09:30:29;8.60;;;4.85;;
66830;SDS011;53739;44.224;22.528;2023-06-10T09:32:56;8.88;;;4.78;;
66830;SDS011;53739;44.224;22.528;2023-06-10T09:35:23;6.50;;;4.93;;
66830;SDS011;53739;44.224;22.528;2023-06-10T09:37:52;6.95;;;4.53;;
66830;SDS011;53739;44.224;22.528;2023-06-10T09:40:19;8.55;;;4.70;;
66830;SDS011;53739;44.224;22.528;2023-06-10T09:42:45;5.72;;;4.72;;
66830;SDS011;53739;44.224;22.528;2023-06-10T09:45:18;6.88;;;4.93;;
66830;SDS011;53739;44.224;22.528;2023-06-10T09:47:47;8.05;;;5.30;;
66830;SDS011;53739;44.224;22.528;2023-06-10T09:50:13;8.38;;;4.90;;
66830;SDS011;53739;44.224;22.528;2023-06-10T09:52:39;5.65;;;4.60;;
66830;SDS011;53739;44.224;22.528;2023-06-10T09:55:07;8.60;;;4.80;;
66830;SDS011;53739;44.224;22.528;2023-06-10T09:57:35;11.23;;;5.45;;
66830;SDS011;53739;44.224;22.528;2023-06-10T10:00:17;7.63;;;4.80;;
66830;SDS011;53739;44.224;22.528;2023-06-10T10:02:49;10.50;;;5.57;;
66830;SDS011;53739;44.224;22.528;2023-06-10T10:05:16;6.45;;;4.93;;
66830;SDS011;53739;44.224;22.528;2023-06-10T10:07:43;8.85;;;5.20;;
66830;SDS011;53739;44.224;22.528;2023-06-10T10:10:10;8.40;;;4.80;;
66830;SDS011;53739;44.224;22.528;2023-06-10T10:12:40;8.52;;;5.22;;
66830;SDS011;53739;44.224;22.528;2023-06-10T10:15:10;5.57;;;4.68;;
66830;SDS011;53739;44.224;22.528;2023-06-10T10:17:39;6.43;;;4.88;;
66830;SDS011;53739;44.224;22.528;2023-06-10T10:20:18;9.95;;;5.57;;
66830;SDS011;53739;44.224;22.528;2023-06-10T10:22:45;7.65;;;5.07;;
66830;SDS011;53739;44.224;22.528;2023-06-10T10:25:22;7.00;;;4.65;;
66830;SDS011;53739;44.224;22.528;2023-06-10T10:31:13;9.88;;;4.82;;
66830;SDS011;53739;44.224;22.528;2023-06-10T10:33:57;7.03;;;4.68;;
66830;SDS011;53739;44.224;22.528;2023-06-10T10:36:50;7.85;;;5.15;;
66830;SDS011;53739;44.224;22.528;2023-06-10T10:39:19;10.40;;;5.07;;
66830;SDS011;53739;44.224;22.528;2023-06-10T10:48:19;7.57;;;4.60;;
66830;SDS011;53739;44.224;22.528;2023-06-10T10:51:09;8.70;;;4.90;;
66830;SDS011;53739;44.224;22.528;2023-06-10T11:20:57;7.43;;;5.10;;
66830;SDS011;53739;44.224;22.528;2023-06-10T12:48:53;8.48;;;4.90;;
66830;SDS011;53739;44.224;22.528;2023-06-10T13:36:48;6.97;;;5.10;;
66830;SDS011;53739;44.224;22.528;2023-06-10T14:52:59;7.05;;;4.90;;
66830;SDS011;53739;44.224;22.528;2023-06-10T15:04:26;6.28;;;4.95;;
66830;SDS011;53739;44.224;22.528;2023-06-10T15:07:01;7.10;;;5.32;;
66830;SDS011;53739;44.224;22.528;2023-06-10T15:09:30;5.68;;;5.03;;
66830;SDS011;53739;44.224;22.528;2023-06-10T15:11:59;9.30;;;5.05;;
66830;SDS011;53739;44.224;22.528;2023-06-10T15:14:25;9.75;;;5.85;;
66830;SDS011;53739;44.224;22.528;2023-06-10T15:16:51;6.30;;;4.95;;
66830;SDS011;53739;44.224;22.528;2023-06-10T15:22:21;6.93;;;5.18;;
66830;SDS011;53739;44.224;22.528;2023-06-10T15:24:47;8.35;;;5.43;;
66830;SDS011;53739;44.224;22.528;2023-06-10T15:27:22;9.35;;;4.97;;
66830;SDS011;53739;44.224;22.528;2023-06-10T15:29:48;7.13;;;4.18;;
66830;SDS011;53739;44.224;22.528;2023-06-10T15:38:22;9.90;;;5.28;;
66830;SDS011;53739;44.224;22.528;2023-06-10T15:59:35;6.65;;;4.47;;
66830;SDS011;53739;44.224;22.528;2023-06-10T17:14:08;10.27;;;6.95;;
66830;SDS011;53739;44.224;22.528;2023-06-10T17:20:07;9.95;;;6.47;;
66830;SDS011;53739;44.224;22.528;2023-06-10T17:22:34;7.72;;;6.57;;
66830;SDS011;53739;44.224;22.528;2023-06-10T17:34:42;9.82;;;6.90;;
66830;SDS011;53739;44.224;22.528;2023-06-10T17:37:29;15.70;;;7.38;;
66830;SDS011;53739;44.224;22.528;2023-06-10T17:40:00;10.60;;;6.65;;
66830;SDS011;53739;44.224;22.528;2023-06-10T17:42:29;7.40;;;6.53;;
66830;SDS011;53739;44.224;22.528;2023-06-10T17:44:55;14.23;;;6.85;;
66830;SDS011;53739;44.224;22.528;2023-06-10T17:47:31;8.43;;;7.50;;
66830;SDS011;53739;44.224;22.528;2023-06-10T17:50:03;12.65;;;7.35;;
66830;SDS011;53739;44.224;22.528;2023-06-10T17:52:29;11.25;;;6.30;;
66830;SDS011;53739;44.224;22.528;2023-06-10T17:54:55;11.70;;;7.40;;
66830;SDS011;53739;44.224;22.528;2023-06-10T17:57:24;12.05;;;7.88;;
66830;SDS011;53739;44.224;22.528;2023-06-10T17:59:50;14.70;;;8.60;;
66830;SDS011;53739;44.224;22.528;2023-06-10T18:02:16;13.15;;;8.13;;
66830;SDS011;53739;44.224;22.528;2023-06-10T18:04:43;10.43;;;9.05;;
66830;SDS011;53739;44.224;22.528;2023-06-10T18:07:09;10.32;;;9.00;;
66830;SDS011;53739;44.224;22.528;2023-06-10T18:09:35;14.77;;;8.63;;
66830;SDS011;53739;44.224;22.528;2023-06-10T18:12:02;13.00;;;9.35;;
66830;SDS011;53739;44.224;22.528;2023-06-10T18:14:28;10.55;;;8.50;;
66830;SDS011;53739;44.224;22.528;2023-06-10T18:16:55;13.32;;;9.68;;
66830;SDS011;53739;44.224;22.528;2023-06-10T18:19:21;13.20;;;9.23;;
66830;SDS011;53739;44.224;22.528;2023-06-10T18:21:50;10.35;;;8.35;;
66830;SDS011;53739;44.224;22.528;2023-06-10T18:24:17;12.38;;;8.95;;
66830;SDS011;53739;44.224;22.528;2023-06-10T18:26:45;11.98;;;9.80;;
66830;SDS011;53739;44.224;22.528;2023-06-10T18:32:25;11.32;;;9.82;;
66830;SDS011;53739;44.224;22.528;2023-06-10T18:40:54;10.75;;;9.05;;
66830;SDS011;53739;44.224;22.528;2023-06-10T18:51:56;17.45;;;11.80;;
66830;SDS011;53739;44.224;22.528;2023-06-10T18:54:22;19.40;;;12.13;;
66830;SDS011;53739;44.224;22.528;2023-06-10T18:56:49;12.73;;;9.52;;
66830;SDS011;53739;44.224;22.528;2023-06-10T18:59:16;13.00;;;10.13;;
66830;SDS011;53739;44.224;22.528;2023-06-10T19:01:43;12.63;;;10.73;;
66830;SDS011;53739;44.224;22.528;2023-06-10T19:04:09;14.90;;;10.32;;
66830;SDS011;53739;44.224;22.528;2023-06-10T19:06:35;15.15;;;10.93;;
66830;SDS011;53739;44.224;22.528;2023-06-10T19:09:04;15.68;;;10.73;;
66830;SDS011;53739;44.224;22.528;2023-06-10T19:11:30;17.55;;;10.15;;
66830;SDS011;53739;44.224;22.528;2023-06-10T19:13:56;16.98;;;11.38;;
66830;SDS011;53739;44.224;22.528;2023-06-10T19:16:22;20.55;;;11.00;;
66830;SDS011;53739;44.224;22.528;2023-06-10T19:18:49;18.00;;;10.27;;
66830;SDS011;53739;44.224;22.528;2023-06-10T19:21:22;18.70;;;10.98;;
66830;SDS011;53739;44.224;22.528;2023-06-10T19:23:49;14.90;;;10.48;;
66830;SDS011;53739;44.224;22.528;2023-06-10T19:26:16;15.75;;;10.20;;
66830;SDS011;53739;44.224;22.528;2023-06-10T19:28:42;17.23;;;10.23;;
66830;SDS011;53739;44.224;22.528;2023-06-10T19:31:08;13.50;;;10.57;;
66830;SDS011;53739;44.224;22.528;2023-06-10T19:33:34;14.10;;;10.20;;
66830;SDS011;53739;44.224;22.528;2023-06-10T19:36:01;21.30;;;10.98;;
66830;SDS011;53739;44.224;22.528;2023-06-10T19:38:27;15.32;;;10.50;;
66830;SDS011;53739;44.224;22.528;2023-06-10T19:40:54;15.27;;;9.93;;
66830;SDS011;53739;44.224;22.528;2023-06-10T19:43:21;13.75;;;10.15;;
66830;SDS011;53739;44.224;22.528;2023-06-10T19:45:47;12.63;;;9.88;;
66830;SDS011;53739;44.224;22.528;2023-06-10T19:48:13;14.20;;;10.27;;
66830;SDS011;53739;44.224;22.528;2023-06-10T19:50:39;20.02;;;10.63;;
66830;SDS011;53739;44.224;22.528;2023-06-10T19:53:05;13.57;;;10.38;;
66830;SDS011;53739;44.224;22.528;2023-06-10T19:55:32;14.55;;;10.57;;
66830;SDS011;53739;44.224;22.528;2023-06-10T19:57:58;14.05;;;10.25;;
66830;SDS011;53739;44.224;22.528;2023-06-10T20:00:24;13.75;;;10.23;;
66830;SDS011;53739;44.224;22.528;2023-06-10T20:02:49;18.60;;;10.10;;
66830;SDS011;53739;44.224;22.528;2023-06-10T20:05:16;18.15;;;12.05;;
66830;SDS011;53739;44.224;22.528;2023-06-10T20:07:42;16.38;;;11.27;;
66830;SDS011;53739;44.224;22.528;2023-06-10T20:13:50;14.85;;;11.05;;
66830;SDS011;53739;44.224;22.528;2023-06-10T20:20:19;15.23;;;11.02;;
66830;SDS011;53739;44.224;22.528;2023-06-10T20:22:47;17.48;;;10.98;;
66830;SDS011;53739;44.224;22.528;2023-06-10T20:25:16;16.13;;;10.82;;
66830;SDS011;53739;44.224;22.528;2023-06-10T20:27:42;13.15;;;10.73;;
66830;SDS011;53739;44.224;22.528;2023-06-10T20:30:19;12.90;;;10.75;;
66830;SDS011;53739;44.224;22.528;2023-06-10T20:36:21;15.45;;;10.55;;
66830;SDS011;53739;44.224;22.528;2023-06-10T20:38:52;16.55;;;11.52;;
66830;SDS011;53739;44.224;22.528;2023-06-10T20:41:24;18.45;;;10.85;;
66830;SDS011;53739;44.224;22.528;2023-06-10T20:43:54;17.00;;;10.02;;
66830;SDS011;53739;44.224;22.528;2023-06-10T20:46:29;17.10;;;10.93;;
66830;SDS011;53739;44.224;22.528;2023-06-10T20:48:58;14.40;;;11.57;;
66830;SDS011;53739;44.224;22.528;2023-06-10T20:51:27;12.88;;;11.57;;
66830;SDS011;53739;44.224;22.528;2023-06-10T20:53:55;16.58;;;11.75;;